sensor_id;sensor_type;location;lat;lon;timestamp;temperature;humidity
21502;DHT22;27639;48.674;9.242;2022-11-09T00:00:42;13.50;60.70
21502;DHT22;27639;48.674;9.242;2022-11-09T00:03:09;13.50;60.90
21502;DHT22;27639;48.674;9.242;2022-11-09T00:05:34;13.50;61.00
21502;DHT22;27639;48.674;9.242;2022-11-09T00:08:00;13.50;61.00
21502;DHT22;27639;48.674;9.242;2022-11-09T00:10:29;13.40;61.00
21502;DHT22;27639;48.674;9.242;2022-11-09T00:12:54;13.50;61.20
21502;DHT22;27639;48.674;9.242;2022-11-09T00:15:20;13.50;61.20
21502;DHT22;27639;48.674;9.242;2022-11-09T00:17:45;13.50;61.30
21502;DHT22;27639;48.674;9.242;2022-11-09T00:20:11;13.50;61.20
21502;DHT22;27639;48.674;9.242;2022-11-09T00:22:36;13.50;61.30
21502;DHT22;27639;48.674;9.242;2022-11-09T00:25:02;13.50;61.20
21502;DHT22;27639;48.674;9.242;2022-11-09T00:27:28;13.60;61.20
21502;DHT22;27639;48.674;9.242;2022-11-09T00:29:53;13.60;61.20
21502;DHT22;27639;48.674;9.242;2022-11-09T00:32:19;13.60;61.20
21502;DHT22;27639;48.674;9.242;2022-11-09T00:34:44;13.60;61.20
21502;DHT22;27639;48.674;9.242;2022-11-09T00:37:10;13.60;61.10
21502;DHT22;27639;48.674;9.242;2022-11-09T00:39:36;13.60;61.10
21502;DHT22;27639;48.674;9.242;2022-11-09T00:42:01;13.60;61.20
21502;DHT22;27639;48.674;9.242;2022-11-09T00:44:27;13.60;61.20
21502;DHT22;27639;48.674;9.242;2022-11-09T00:46:52;13.50;61.00
21502;DHT22;27639;48.674;9.242;2022-11-09T00:49:18;13.50;61.30
21502;DHT22;27639;48.674;9.242;2022-11-09T00:51:43;13.50;61.40
21502;DHT22;27639;48.674;9.242;2022-11-09T00:54:09;13.50;61.40
21502;DHT22;27639;48.674;9.242;2022-11-09T00:56:35;13.60;61.50
21502;DHT22;27639;48.674;9.242;2022-11-09T00:59:00;13.60;61.60
21502;DHT22;27639;48.674;9.242;2022-11-09T01:01:26;13.60;61.50
21502;DHT22;27639;48.674;9.242;2022-11-09T01:03:52;13.60;61.60
21502;DHT22;27639;48.674;9.242;2022-11-09T01:06:21;13.60;61.60
21502;DHT22;27639;48.674;9.242;2022-11-09T01:08:47;13.60;61.60
21502;DHT22;27639;48.674;9.242;2022-11-09T01:11:13;13.60;61.60
21502;DHT22;27639;48.674;9.242;2022-11-09T01:13:38;13.60;61.70
21502;DHT22;27639;48.674;9.242;2022-11-09T01:16:10;13.50;61.60
21502;DHT22;27639;48.674;9.242;2022-11-09T01:18:37;13.40;61.60
21502;DHT22;27639;48.674;9.242;2022-11-09T01:21:06;13.50;61.80
21502;DHT22;27639;48.674;9.242;2022-11-09T01:23:32;13.50;61.90
21502;DHT22;27639;48.674;9.242;2022-11-09T01:26:04;13.50;61.90
21502;DHT22;27639;48.674;9.242;2022-11-09T01:28:30;13.60;61.90
21502;DHT22;27639;48.674;9.242;2022-11-09T01:31:03;13.50;61.80
21502;DHT22;27639;48.674;9.242;2022-11-09T01:33:29;13.50;61.70
21502;DHT22;27639;48.674;9.242;2022-11-09T01:36:04;13.50;61.80
21502;DHT22;27639;48.674;9.242;2022-11-09T01:38:29;13.50;61.80
21502;DHT22;27639;48.674;9.242;2022-11-09T01:40:55;13.50;61.90
21502;DHT22;27639;48.674;9.242;2022-11-09T01:43:22;13.50;61.80
21502;DHT22;27639;48.674;9.242;2022-11-09T01:48:25;13.60;61.70
21502;DHT22;27639;48.674;9.242;2022-11-09T01:50:57;13.60;61.70
21502;DHT22;27639;48.674;9.242;2022-11-09T01:53:28;13.50;61.70
21502;DHT22;27639;48.674;9.242;2022-11-09T01:55:57;13.60;61.80
21502;DHT22;27639;48.674;9.242;2022-11-09T02:01:12;13.50;61.80
21502;DHT22;27639;48.674;9.242;2022-11-09T02:03:50;13.50;62.00
21502;DHT22;27639;48.674;9.242;2022-11-09T02:06:17;13.40;61.90
21502;DHT22;27639;48.674;9.242;2022-11-09T02:08:45;13.40;62.10
21502;DHT22;27639;48.674;9.242;2022-11-09T02:11:15;13.50;62.20
21502;DHT22;27639;48.674;9.242;2022-11-09T02:13:44;13.50;62.20
21502;DHT22;27639;48.674;9.242;2022-11-09T02:16:12;13.50;62.20
21502;DHT22;27639;48.674;9.242;2022-11-09T02:18:53;13.50;62.20
21502;DHT22;27639;48.674;9.242;2022-11-09T02:21:20;13.40;62.10
21502;DHT22;27639;48.674;9.242;2022-11-09T02:23:46;13.50;62.40
21502;DHT22;27639;48.674;9.242;2022-11-09T02:26:18;13.50;62.40
21502;DHT22;27639;48.674;9.242;2022-11-09T02:28:46;13.50;62.20
21502;DHT22;27639;48.674;9.242;2022-11-09T02:31:14;13.50;62.30
21502;DHT22;27639;48.674;9.242;2022-11-09T02:36:15;13.70;62.10
21502;DHT22;27639;48.674;9.242;2022-11-09T02:38:41;13.60;62.00
21502;DHT22;27639;48.674;9.242;2022-11-09T02:41:06;13.60;62.00
21502;DHT22;27639;48.674;9.242;2022-11-09T02:43:34;13.70;62.10
21502;DHT22;27639;48.674;9.242;2022-11-09T02:46:01;13.70;62.10
21502;DHT22;27639;48.674;9.242;2022-11-09T02:48:26;13.60;62.10
21502;DHT22;27639;48.674;9.242;2022-11-09T02:50:52;13.60;62.20
21502;DHT22;27639;48.674;9.242;2022-11-09T02:53:17;13.60;62.40
21502;DHT22;27639;48.674;9.242;2022-11-09T02:55:43;13.60;62.30
21502;DHT22;27639;48.674;9.242;2022-11-09T02:58:09;13.60;62.20
21502;DHT22;27639;48.674;9.242;2022-11-09T03:00:34;13.60;62.30
21502;DHT22;27639;48.674;9.242;2022-11-09T03:03:00;13.60;62.40
21502;DHT22;27639;48.674;9.242;2022-11-09T03:05:25;13.70;62.50
21502;DHT22;27639;48.674;9.242;2022-11-09T03:07:51;13.70;62.40
21502;DHT22;27639;48.674;9.242;2022-11-09T03:10:17;13.80;62.60
21502;DHT22;27639;48.674;9.242;2022-11-09T03:12:42;13.80;62.60
21502;DHT22;27639;48.674;9.242;2022-11-09T03:15:08;13.80;62.60
21502;DHT22;27639;48.674;9.242;2022-11-09T03:17:34;13.90;62.60
21502;DHT22;27639;48.674;9.242;2022-11-09T03:20:00;13.90;62.60
21502;DHT22;27639;48.674;9.242;2022-11-09T03:22:26;13.90;62.50
21502;DHT22;27639;48.674;9.242;2022-11-09T03:24:52;13.90;62.50
21502;DHT22;27639;48.674;9.242;2022-11-09T03:27:17;13.90;62.50
21502;DHT22;27639;48.674;9.242;2022-11-09T03:29:43;14.00;62.40
21502;DHT22;27639;48.674;9.242;2022-11-09T03:32:09;14.00;62.40
21502;DHT22;27639;48.674;9.242;2022-11-09T03:34:35;14.00;62.40
21502;DHT22;27639;48.674;9.242;2022-11-09T03:37:00;14.00;62.40
21502;DHT22;27639;48.674;9.242;2022-11-09T03:39:26;14.10;62.50
21502;DHT22;27639;48.674;9.242;2022-11-09T03:41:51;14.10;62.60
21502;DHT22;27639;48.674;9.242;2022-11-09T03:44:17;14.10;62.80
21502;DHT22;27639;48.674;9.242;2022-11-09T03:46:44;14.10;63.00
21502;DHT22;27639;48.674;9.242;2022-11-09T03:49:10;14.10;63.20
21502;DHT22;27639;48.674;9.242;2022-11-09T03:51:36;14.10;63.30
21502;DHT22;27639;48.674;9.242;2022-11-09T03:54:02;14.10;63.30
21502;DHT22;27639;48.674;9.242;2022-11-09T03:56:27;14.20;63.20
21502;DHT22;27639;48.674;9.242;2022-11-09T03:58:53;14.10;63.00
21502;DHT22;27639;48.674;9.242;2022-11-09T04:01:18;14.10;63.00
21502;DHT22;27639;48.674;9.242;2022-11-09T04:03:44;14.10;63.20
21502;DHT22;27639;48.674;9.242;2022-11-09T04:06:09;14.00;63.20
21502;DHT22;27639;48.674;9.242;2022-11-09T04:08:35;14.00;63.30
21502;DHT22;27639;48.674;9.242;2022-11-09T04:11:00;14.10;63.60
21502;DHT22;27639;48.674;9.242;2022-11-09T04:13:26;14.10;63.70
21502;DHT22;27639;48.674;9.242;2022-11-09T04:15:52;14.10;64.10
21502;DHT22;27639;48.674;9.242;2022-11-09T04:18:17;14.10;64.10
21502;DHT22;27639;48.674;9.242;2022-11-09T04:20:43;14.10;64.90
21502;DHT22;27639;48.674;9.242;2022-11-09T04:23:11;14.10;64.20
21502;DHT22;27639;48.674;9.242;2022-11-09T04:25:39;14.20;64.30
21502;DHT22;27639;48.674;9.242;2022-11-09T04:28:06;14.20;64.40
21502;DHT22;27639;48.674;9.242;2022-11-09T04:30:34;14.20;64.50
21502;DHT22;27639;48.674;9.242;2022-11-09T04:33:00;14.20;64.60
21502;DHT22;27639;48.674;9.242;2022-11-09T04:35:27;14.20;64.80
21502;DHT22;27639;48.674;9.242;2022-11-09T04:37:55;14.20;65.40
21502;DHT22;27639;48.674;9.242;2022-11-09T04:40:22;14.20;65.70
21502;DHT22;27639;48.674;9.242;2022-11-09T04:42:47;14.20;65.90
21502;DHT22;27639;48.674;9.242;2022-11-09T04:45:13;14.20;66.20
21502;DHT22;27639;48.674;9.242;2022-11-09T04:47:39;14.20;66.50
21502;DHT22;27639;48.674;9.242;2022-11-09T04:50:05;14.20;66.60
21502;DHT22;27639;48.674;9.242;2022-11-09T04:52:31;14.30;66.70
21502;DHT22;27639;48.674;9.242;2022-11-09T04:54:56;14.30;66.80
21502;DHT22;27639;48.674;9.242;2022-11-09T04:57:22;14.20;66.80
21502;DHT22;27639;48.674;9.242;2022-11-09T04:59:48;14.20;66.90
21502;DHT22;27639;48.674;9.242;2022-11-09T05:02:13;14.20;67.10
21502;DHT22;27639;48.674;9.242;2022-11-09T05:04:39;14.20;67.10
21502;DHT22;27639;48.674;9.242;2022-11-09T05:07:05;14.20;67.30
21502;DHT22;27639;48.674;9.242;2022-11-09T05:09:30;14.10;67.50
21502;DHT22;27639;48.674;9.242;2022-11-09T05:11:56;14.10;67.60
21502;DHT22;27639;48.674;9.242;2022-11-09T05:14:21;14.10;67.70
21502;DHT22;27639;48.674;9.242;2022-11-09T05:16:47;14.10;67.70
21502;DHT22;27639;48.674;9.242;2022-11-09T05:19:12;14.10;67.50
21502;DHT22;27639;48.674;9.242;2022-11-09T05:21:38;14.10;67.50
21502;DHT22;27639;48.674;9.242;2022-11-09T05:24:04;14.10;67.50
21502;DHT22;27639;48.674;9.242;2022-11-09T05:26:35;14.10;67.50
21502;DHT22;27639;48.674;9.242;2022-11-09T05:29:04;14.10;67.30
21502;DHT22;27639;48.674;9.242;2022-11-09T05:31:30;14.10;67.40
21502;DHT22;27639;48.674;9.242;2022-11-09T05:33:56;14.10;67.30
21502;DHT22;27639;48.674;9.242;2022-11-09T05:36:22;14.10;67.30
21502;DHT22;27639;48.674;9.242;2022-11-09T05:38:48;14.10;67.20
21502;DHT22;27639;48.674;9.242;2022-11-09T05:41:14;14.20;68.10
21502;DHT22;27639;48.674;9.242;2022-11-09T05:43:40;14.10;67.10
21502;DHT22;27639;48.674;9.242;2022-11-09T05:46:06;14.20;67.20
21502;DHT22;27639;48.674;9.242;2022-11-09T05:48:32;14.20;67.10
21502;DHT22;27639;48.674;9.242;2022-11-09T05:51:05;14.20;67.10
21502;DHT22;27639;48.674;9.242;2022-11-09T05:53:31;14.20;66.90
21502;DHT22;27639;48.674;9.242;2022-11-09T05:56:07;14.20;67.00
21502;DHT22;27639;48.674;9.242;2022-11-09T05:58:33;14.20;67.00
21502;DHT22;27639;48.674;9.242;2022-11-09T06:01:08;14.30;67.10
21502;DHT22;27639;48.674;9.242;2022-11-09T06:03:34;14.30;66.90
21502;DHT22;27639;48.674;9.242;2022-11-09T06:06:04;14.30;66.70
21502;DHT22;27639;48.674;9.242;2022-11-09T06:08:30;14.30;66.50
21502;DHT22;27639;48.674;9.242;2022-11-09T06:11:04;14.30;66.60
21502;DHT22;27639;48.674;9.242;2022-11-09T06:13:30;14.30;66.40
21502;DHT22;27639;48.674;9.242;2022-11-09T06:15:59;14.20;66.70
21502;DHT22;27639;48.674;9.242;2022-11-09T06:18:26;14.20;66.90
21502;DHT22;27639;48.674;9.242;2022-11-09T06:20:53;14.20;67.00
21502;DHT22;27639;48.674;9.242;2022-11-09T06:23:20;14.10;67.10
21502;DHT22;27639;48.674;9.242;2022-11-09T06:25:57;14.10;67.10
21502;DHT22;27639;48.674;9.242;2022-11-09T06:28:23;14.10;67.00
21502;DHT22;27639;48.674;9.242;2022-11-09T06:30:49;14.10;67.10
21502;DHT22;27639;48.674;9.242;2022-11-09T06:33:14;14.10;67.10
21502;DHT22;27639;48.674;9.242;2022-11-09T06:35:40;14.10;67.20
21502;DHT22;27639;48.674;9.242;2022-11-09T06:38:07;14.10;67.30
21502;DHT22;27639;48.674;9.242;2022-11-09T06:40:33;14.10;67.30
21502;DHT22;27639;48.674;9.242;2022-11-09T06:43:01;14.10;67.30
21502;DHT22;27639;48.674;9.242;2022-11-09T06:45:28;14.10;67.20
21502;DHT22;27639;48.674;9.242;2022-11-09T06:47:55;14.20;67.20
21502;DHT22;27639;48.674;9.242;2022-11-09T06:50:21;14.20;67.20
21502;DHT22;27639;48.674;9.242;2022-11-09T06:52:46;14.20;67.20
21502;DHT22;27639;48.674;9.242;2022-11-09T06:55:12;14.20;67.10
21502;DHT22;27639;48.674;9.242;2022-11-09T06:57:37;14.20;67.00
21502;DHT22;27639;48.674;9.242;2022-11-09T07:00:04;14.30;67.10
21502;DHT22;27639;48.674;9.242;2022-11-09T07:02:29;14.30;67.10
21502;DHT22;27639;48.674;9.242;2022-11-09T07:04:55;14.40;67.20
21502;DHT22;27639;48.674;9.242;2022-11-09T07:07:21;14.40;67.00
21502;DHT22;27639;48.674;9.242;2022-11-09T07:09:46;14.40;66.90
21502;DHT22;27639;48.674;9.242;2022-11-09T07:12:12;14.40;66.90
21502;DHT22;27639;48.674;9.242;2022-11-09T07:14:37;14.50;66.90
21502;DHT22;27639;48.674;9.242;2022-11-09T07:17:03;14.50;66.80
21502;DHT22;27639;48.674;9.242;2022-11-09T07:19:28;14.50;66.80
21502;DHT22;27639;48.674;9.242;2022-11-09T07:21:55;14.50;66.90
21502;DHT22;27639;48.674;9.242;2022-11-09T07:24:21;14.50;66.80
21502;DHT22;27639;48.674;9.242;2022-11-09T07:26:47;14.50;66.80
21502;DHT22;27639;48.674;9.242;2022-11-09T07:29:13;14.50;66.80
21502;DHT22;27639;48.674;9.242;2022-11-09T07:31:39;14.50;67.70
21502;DHT22;27639;48.674;9.242;2022-11-09T07:34:04;14.50;66.80
21502;DHT22;27639;48.674;9.242;2022-11-09T07:36:30;14.50;66.80
21502;DHT22;27639;48.674;9.242;2022-11-09T07:38:57;14.50;66.80
21502;DHT22;27639;48.674;9.242;2022-11-09T07:41:23;14.50;66.80
21502;DHT22;27639;48.674;9.242;2022-11-09T07:43:48;14.50;67.00
21502;DHT22;27639;48.674;9.242;2022-11-09T07:46:14;14.50;67.30
21502;DHT22;27639;48.674;9.242;2022-11-09T07:48:40;14.50;67.50
21502;DHT22;27639;48.674;9.242;2022-11-09T07:51:06;14.50;67.80
21502;DHT22;27639;48.674;9.242;2022-11-09T07:53:31;14.40;68.20
21502;DHT22;27639;48.674;9.242;2022-11-09T07:56:00;14.30;68.60
21502;DHT22;27639;48.674;9.242;2022-11-09T07:58:26;14.30;68.80
21502;DHT22;27639;48.674;9.242;2022-11-09T08:00:52;14.40;69.00
21502;DHT22;27639;48.674;9.242;2022-11-09T08:03:18;14.50;69.10
21502;DHT22;27639;48.674;9.242;2022-11-09T08:05:44;14.50;69.10
21502;DHT22;27639;48.674;9.242;2022-11-09T08:08:11;14.50;69.20
21502;DHT22;27639;48.674;9.242;2022-11-09T08:10:37;14.50;69.50
21502;DHT22;27639;48.674;9.242;2022-11-09T08:13:13;14.50;69.50
21502;DHT22;27639;48.674;9.242;2022-11-09T08:15:40;14.60;69.40
21502;DHT22;27639;48.674;9.242;2022-11-09T08:18:11;14.60;69.60
21502;DHT22;27639;48.674;9.242;2022-11-09T08:20:36;14.70;69.70
21502;DHT22;27639;48.674;9.242;2022-11-09T08:23:02;14.70;69.70
21502;DHT22;27639;48.674;9.242;2022-11-09T08:25:28;14.70;69.60
21502;DHT22;27639;48.674;9.242;2022-11-09T08:27:55;14.80;69.60
21502;DHT22;27639;48.674;9.242;2022-11-09T08:30:21;14.80;69.70
21502;DHT22;27639;48.674;9.242;2022-11-09T08:32:48;14.90;69.80
21502;DHT22;27639;48.674;9.242;2022-11-09T08:35:16;14.90;69.80
21502;DHT22;27639;48.674;9.242;2022-11-09T08:37:43;15.00;69.90
21502;DHT22;27639;48.674;9.242;2022-11-09T08:40:09;15.00;69.80
21502;DHT22;27639;48.674;9.242;2022-11-09T08:42:35;15.00;69.80
21502;DHT22;27639;48.674;9.242;2022-11-09T08:45:01;15.10;70.10
21502;DHT22;27639;48.674;9.242;2022-11-09T08:47:28;15.10;70.30
21502;DHT22;27639;48.674;9.242;2022-11-09T08:49:53;15.10;70.50
21502;DHT22;27639;48.674;9.242;2022-11-09T08:52:19;15.00;70.60
21502;DHT22;27639;48.674;9.242;2022-11-09T08:54:45;15.10;70.90
21502;DHT22;27639;48.674;9.242;2022-11-09T08:57:10;15.10;71.10
21502;DHT22;27639;48.674;9.242;2022-11-09T08:59:36;15.10;71.10
21502;DHT22;27639;48.674;9.242;2022-11-09T09:02:02;15.20;71.30
21502;DHT22;27639;48.674;9.242;2022-11-09T09:04:28;15.20;71.30
21502;DHT22;27639;48.674;9.242;2022-11-09T09:06:54;15.20;71.10
21502;DHT22;27639;48.674;9.242;2022-11-09T09:09:20;15.30;70.90
21502;DHT22;27639;48.674;9.242;2022-11-09T09:11:45;15.40;70.90
21502;DHT22;27639;48.674;9.242;2022-11-09T09:14:11;15.40;70.80
21502;DHT22;27639;48.674;9.242;2022-11-09T09:16:36;15.40;70.80
21502;DHT22;27639;48.674;9.242;2022-11-09T09:19:02;15.40;70.70
21502;DHT22;27639;48.674;9.242;2022-11-09T09:21:28;15.40;70.60
21502;DHT22;27639;48.674;9.242;2022-11-09T09:23:54;15.40;70.70
21502;DHT22;27639;48.674;9.242;2022-11-09T09:26:19;15.30;70.60
21502;DHT22;27639;48.674;9.242;2022-11-09T09:28:45;15.30;70.50
21502;DHT22;27639;48.674;9.242;2022-11-09T09:31:10;15.40;70.50
21502;DHT22;27639;48.674;9.242;2022-11-09T09:33:36;15.40;70.40
21502;DHT22;27639;48.674;9.242;2022-11-09T09:36:02;15.40;70.20
21502;DHT22;27639;48.674;9.242;2022-11-09T09:38:29;15.40;70.10
21502;DHT22;27639;48.674;9.242;2022-11-09T09:40:59;15.50;70.20
21502;DHT22;27639;48.674;9.242;2022-11-09T09:43:36;15.50;70.10
21502;DHT22;27639;48.674;9.242;2022-11-09T09:46:11;15.50;70.00
21502;DHT22;27639;48.674;9.242;2022-11-09T09:48:44;15.50;70.20
21502;DHT22;27639;48.674;9.242;2022-11-09T09:51:17;15.50;70.30
21502;DHT22;27639;48.674;9.242;2022-11-09T09:54:09;15.60;70.30
21502;DHT22;27639;48.674;9.242;2022-11-09T09:56:39;15.60;70.40
21502;DHT22;27639;48.674;9.242;2022-11-09T09:59:19;15.70;70.60
21502;DHT22;27639;48.674;9.242;2022-11-09T10:01:47;15.80;70.60
21502;DHT22;27639;48.674;9.242;2022-11-09T10:04:18;15.80;70.60
21502;DHT22;27639;48.674;9.242;2022-11-09T10:07:11;15.80;70.70
21502;DHT22;27639;48.674;9.242;2022-11-09T10:15:14;16.00;70.80
21502;DHT22;27639;48.674;9.242;2022-11-09T10:18:00;16.10;71.20
21502;DHT22;27639;48.674;9.242;2022-11-09T10:26:10;16.30;71.00
21502;DHT22;27639;48.674;9.242;2022-11-09T10:28:40;16.40;71.00
21502;DHT22;27639;48.674;9.242;2022-11-09T10:31:16;16.50;71.00
21502;DHT22;27639;48.674;9.242;2022-11-09T10:34:03;16.60;70.70
21502;DHT22;27639;48.674;9.242;2022-11-09T10:36:41;16.60;70.60
21502;DHT22;27639;48.674;9.242;2022-11-09T10:39:12;16.70;70.30
21502;DHT22;27639;48.674;9.242;2022-11-09T10:41:40;16.80;70.30
21502;DHT22;27639;48.674;9.242;2022-11-09T10:44:16;16.90;71.30
21502;DHT22;27639;48.674;9.242;2022-11-09T10:49:26;16.80;70.60
21502;DHT22;27639;48.674;9.242;2022-11-09T10:51:51;17.00;71.00
21502;DHT22;27639;48.674;9.242;2022-11-09T10:54:22;17.10;70.90
21502;DHT22;27639;48.674;9.242;2022-11-09T10:59:51;17.10;70.30
21502;DHT22;27639;48.674;9.242;2022-11-09T11:07:32;17.40;70.30
21502;DHT22;27639;48.674;9.242;2022-11-09T11:10:16;17.50;70.10
21502;DHT22;27639;48.674;9.242;2022-11-09T11:12:42;17.60;70.00
21502;DHT22;27639;48.674;9.242;2022-11-09T11:15:28;17.70;70.00
21502;DHT22;27639;48.674;9.242;2022-11-09T11:18:04;17.70;69.50
21502;DHT22;27639;48.674;9.242;2022-11-09T11:20:31;17.80;69.30
21502;DHT22;27639;48.674;9.242;2022-11-09T11:28:39;17.90;68.30
21502;DHT22;27639;48.674;9.242;2022-11-09T11:31:13;17.80;68.00
21502;DHT22;27639;48.674;9.242;2022-11-09T11:33:39;17.80;68.10
21502;DHT22;27639;48.674;9.242;2022-11-09T11:44:11;17.90;67.50
21502;DHT22;27639;48.674;9.242;2022-11-09T11:46:45;17.90;67.60
21502;DHT22;27639;48.674;9.242;2022-11-09T11:49:31;17.90;67.60
21502;DHT22;27639;48.674;9.242;2022-11-09T12:00:16;17.90;67.50
21502;DHT22;27639;48.674;9.242;2022-11-09T12:33:54;18.00;67.10
21502;DHT22;27639;48.674;9.242;2022-11-09T12:39:06;18.10;67.00
21502;DHT22;27639;48.674;9.242;2022-11-09T12:41:37;18.20;67.10
21502;DHT22;27639;48.674;9.242;2022-11-09T12:44:40;18.20;66.90
21502;DHT22;27639;48.674;9.242;2022-11-09T12:47:12;18.20;66.60
21502;DHT22;27639;48.674;9.242;2022-11-09T12:49:42;18.20;66.90
21502;DHT22;27639;48.674;9.242;2022-11-09T12:52:14;18.20;66.70
21502;DHT22;27639;48.674;9.242;2022-11-09T12:54:45;18.20;66.60
21502;DHT22;27639;48.674;9.242;2022-11-09T12:57:30;18.20;66.50
21502;DHT22;27639;48.674;9.242;2022-11-09T12:59:59;18.20;66.00
21502;DHT22;27639;48.674;9.242;2022-11-09T13:02:53;18.30;66.10
21502;DHT22;27639;48.674;9.242;2022-11-09T13:07:52;18.00;65.60
21502;DHT22;27639;48.674;9.242;2022-11-09T13:10:27;18.10;66.10
21502;DHT22;27639;48.674;9.242;2022-11-09T13:15:35;18.10;65.20
21502;DHT22;27639;48.674;9.242;2022-11-09T13:20:49;18.10;65.30
21502;DHT22;27639;48.674;9.242;2022-11-09T13:23:38;18.10;65.20
21502;DHT22;27639;48.674;9.242;2022-11-09T13:29:08;18.10;64.90
21502;DHT22;27639;48.674;9.242;2022-11-09T13:39:58;18.10;64.90
21502;DHT22;27639;48.674;9.242;2022-11-09T13:42:30;18.10;65.20
21502;DHT22;27639;48.674;9.242;2022-11-09T13:45:25;18.10;65.20
21502;DHT22;27639;48.674;9.242;2022-11-09T13:47:51;18.10;64.70
21502;DHT22;27639;48.674;9.242;2022-11-09T13:50:19;18.10;65.20
21502;DHT22;27639;48.674;9.242;2022-11-09T13:52:51;18.10;65.20
21502;DHT22;27639;48.674;9.242;2022-11-09T13:55:34;18.10;65.10
21502;DHT22;27639;48.674;9.242;2022-11-09T13:58:22;18.10;64.90
21502;DHT22;27639;48.674;9.242;2022-11-09T14:00:47;18.00;64.80
21502;DHT22;27639;48.674;9.242;2022-11-09T14:03:26;18.00;64.80
21502;DHT22;27639;48.674;9.242;2022-11-09T14:05:59;18.00;64.60
21502;DHT22;27639;48.674;9.242;2022-11-09T14:08:35;18.00;64.70
21502;DHT22;27639;48.674;9.242;2022-11-09T14:11:26;17.90;64.60
21502;DHT22;27639;48.674;9.242;2022-11-09T14:21:46;18.00;64.90
21502;DHT22;27639;48.674;9.242;2022-11-09T14:24:19;18.00;65.00
21502;DHT22;27639;48.674;9.242;2022-11-09T14:29:36;18.10;64.80
21502;DHT22;27639;48.674;9.242;2022-11-09T14:37:43;18.00;64.60
21502;DHT22;27639;48.674;9.242;2022-11-09T14:40:25;18.00;64.90
21502;DHT22;27639;48.674;9.242;2022-11-09T14:45:53;18.00;64.70
21502;DHT22;27639;48.674;9.242;2022-11-09T14:48:20;18.00;64.90
21502;DHT22;27639;48.674;9.242;2022-11-09T14:50:47;18.00;65.10
21502;DHT22;27639;48.674;9.242;2022-11-09T14:53:26;18.00;65.10
21502;DHT22;27639;48.674;9.242;2022-11-09T14:55:54;18.00;64.90
21502;DHT22;27639;48.674;9.242;2022-11-09T14:58:21;17.90;65.00
21502;DHT22;27639;48.674;9.242;2022-11-09T15:03:31;18.00;65.10
21502;DHT22;27639;48.674;9.242;2022-11-09T15:06:08;18.00;65.40
21502;DHT22;27639;48.674;9.242;2022-11-09T15:08:35;18.00;65.20
21502;DHT22;27639;48.674;9.242;2022-11-09T15:11:02;17.90;65.40
21502;DHT22;27639;48.674;9.242;2022-11-09T15:13:38;17.90;66.30
21502;DHT22;27639;48.674;9.242;2022-11-09T15:16:04;17.90;65.40
21502;DHT22;27639;48.674;9.242;2022-11-09T15:18:33;17.90;65.70
21502;DHT22;27639;48.674;9.242;2022-11-09T15:21:20;17.90;65.90
21502;DHT22;27639;48.674;9.242;2022-11-09T15:29:22;17.90;66.10
21502;DHT22;27639;48.674;9.242;2022-11-09T15:34:56;17.80;66.00
21502;DHT22;27639;48.674;9.242;2022-11-09T15:40:14;17.70;66.30
21502;DHT22;27639;48.674;9.242;2022-11-09T15:42:40;17.70;66.30
21502;DHT22;27639;48.674;9.242;2022-11-09T15:45:06;17.70;66.50
21502;DHT22;27639;48.674;9.242;2022-11-09T15:47:36;17.70;66.60
21502;DHT22;27639;48.674;9.242;2022-11-09T15:50:26;17.60;66.60
21502;DHT22;27639;48.674;9.242;2022-11-09T15:52:52;17.50;66.50
21502;DHT22;27639;48.674;9.242;2022-11-09T15:55:19;17.50;67.10
21502;DHT22;27639;48.674;9.242;2022-11-09T15:57:49;17.50;67.20
21502;DHT22;27639;48.674;9.242;2022-11-09T16:00:19;17.40;67.40
21502;DHT22;27639;48.674;9.242;2022-11-09T16:02:45;17.40;67.60
21502;DHT22;27639;48.674;9.242;2022-11-09T16:05:11;17.30;67.50
21502;DHT22;27639;48.674;9.242;2022-11-09T16:07:37;17.30;67.80
21502;DHT22;27639;48.674;9.242;2022-11-09T16:10:03;17.30;68.00
21502;DHT22;27639;48.674;9.242;2022-11-09T16:12:29;17.20;67.90
21502;DHT22;27639;48.674;9.242;2022-11-09T16:14:54;17.20;68.10
21502;DHT22;27639;48.674;9.242;2022-11-09T16:17:20;17.20;68.20
21502;DHT22;27639;48.674;9.242;2022-11-09T16:19:46;17.20;68.30
21502;DHT22;27639;48.674;9.242;2022-11-09T16:22:11;17.20;68.30
21502;DHT22;27639;48.674;9.242;2022-11-09T16:24:37;17.20;68.40
21502;DHT22;27639;48.674;9.242;2022-11-09T16:27:04;17.10;68.30
21502;DHT22;27639;48.674;9.242;2022-11-09T16:29:31;17.10;68.30
21502;DHT22;27639;48.674;9.242;2022-11-09T16:31:57;17.10;68.40
21502;DHT22;27639;48.674;9.242;2022-11-09T16:34:23;17.10;68.50
21502;DHT22;27639;48.674;9.242;2022-11-09T16:36:49;17.10;68.50
21502;DHT22;27639;48.674;9.242;2022-11-09T16:39:15;17.00;68.50
21502;DHT22;27639;48.674;9.242;2022-11-09T16:41:46;17.00;68.50
21502;DHT22;27639;48.674;9.242;2022-11-09T16:44:14;17.00;68.60
21502;DHT22;27639;48.674;9.242;2022-11-09T16:46:43;17.00;68.70
21502;DHT22;27639;48.674;9.242;2022-11-09T16:49:09;17.00;68.70
21502;DHT22;27639;48.674;9.242;2022-11-09T16:51:35;17.00;68.70
21502;DHT22;27639;48.674;9.242;2022-11-09T16:54:01;16.90;68.60
21502;DHT22;27639;48.674;9.242;2022-11-09T16:56:26;17.00;68.70
21502;DHT22;27639;48.674;9.242;2022-11-09T16:58:52;17.00;68.80
21502;DHT22;27639;48.674;9.242;2022-11-09T17:01:18;16.90;68.70
21502;DHT22;27639;48.674;9.242;2022-11-09T17:03:43;16.90;68.80
21502;DHT22;27639;48.674;9.242;2022-11-09T17:06:09;16.90;69.00
21502;DHT22;27639;48.674;9.242;2022-11-09T17:08:39;16.80;68.90
21502;DHT22;27639;48.674;9.242;2022-11-09T17:11:09;16.90;69.10
21502;DHT22;27639;48.674;9.242;2022-11-09T17:13:36;16.80;69.10
21502;DHT22;27639;48.674;9.242;2022-11-09T17:16:08;16.80;69.30
21502;DHT22;27639;48.674;9.242;2022-11-09T17:18:34;16.80;69.30
21502;DHT22;27639;48.674;9.242;2022-11-09T17:21:02;16.80;69.40
21502;DHT22;27639;48.674;9.242;2022-11-09T17:23:28;16.80;69.60
21502;DHT22;27639;48.674;9.242;2022-11-09T17:25:56;16.70;69.70
21502;DHT22;27639;48.674;9.242;2022-11-09T17:28:22;16.70;69.80
21502;DHT22;27639;48.674;9.242;2022-11-09T17:30:48;16.70;69.90
21502;DHT22;27639;48.674;9.242;2022-11-09T17:33:13;16.60;70.00
21502;DHT22;27639;48.674;9.242;2022-11-09T17:35:39;16.60;70.10
21502;DHT22;27639;48.674;9.242;2022-11-09T17:38:04;16.60;70.10
21502;DHT22;27639;48.674;9.242;2022-11-09T17:40:30;16.70;70.10
21502;DHT22;27639;48.674;9.242;2022-11-09T17:42:55;16.70;70.00
21502;DHT22;27639;48.674;9.242;2022-11-09T17:45:22;16.60;70.00
21502;DHT22;27639;48.674;9.242;2022-11-09T17:47:48;16.70;70.10
21502;DHT22;27639;48.674;9.242;2022-11-09T17:50:13;16.60;70.30
21502;DHT22;27639;48.674;9.242;2022-11-09T17:52:39;16.60;70.20
21502;DHT22;27639;48.674;9.242;2022-11-09T17:55:05;16.60;70.10